Upstream stations:
SHEF ID: PLYK1 COTTONWOOD R NR PLYMOUTH, KS
STATION TYPE:
Regulating: Stage = 28.00, Flow = 11213
PRECIP STAGE STAGE(2) RIV-FLOW BAT-LOAD
in ft ft cfs volt
Ccp-Rev Ccp-Rev Ccp-Rev Ccp-Rev Ccp-Rev
(US/Central)
09/15 00:00 0.00 2.49 3.91 139 12.19
09/15 01:00 0.00 2.49 3.91 139 12.19
09/15 02:00 0.00 2.48 3.91 137 12.13
09/15 03:00 0.00 2.48 3.91 137 12.13
09/15 04:00 0.00 2.47 3.91 136 12.13
09/15 05:00 0.00 2.47 3.91 136 12.07
09/15 06:00 0.00 2.46 3.91 135 12.07
09/15 07:00 0.00 2.46 3.91 135 12.07
09/15 08:00 0.00 2.45 3.91 134 12.07
09/15 09:00 0.00 2.45 3.91 134 12.07
09/15 10:00 0.00 2.44 3.91 132 12.13
09/15 11:00 0.00 2.44 3.91 132 12.48
09/15 12:00 0.00 2.44 3.91 132 12.54
09/15 13:00 0.00 2.44 3.91 132 12.60
09/15 14:00 0.00 2.44 3.91 132 12.54
09/15 15:00 0.00 2.44 3.91 132 12.36
09/15 16:00 0.00 2.46 3.91 135 12.30
09/15 17:00 0.00 2.99 3.91 212 12.24
09/15 18:00 0.00 3.88 3.91 356 12.24
09/15 19:00 0.00 4.39 3.91 448 12.24
09/15 20:00 0.00 4.59 3.91 481 12.24
09/15 21:00 0.00 4.64 3.91 490 12.24
09/15 22:00 0.00 4.62 3.91 486 12.24
09/15 23:00 0.00 4.57 3.91 478 12.19